Time;durP1;ratioP1;P1;durP2;ratioP2;P2;SDS_P1;SDS_P2;PMS_P1;PMS_P2;Temp;Humidity;BMP_temperature;BMP_pressure;BME280_temperature;BME280_humidity;BME280_pressure;Samples;Min_cycle;Max_cycle;Signal;HPM_P1;HPM_P2
2022/09/26 00:01:25;;;;;;;5.90;1.50;;;12.50;99.90;;;;;;5031059;28;20037;-80
2022/09/26 00:03:53;;;;;;;7.38;1.73;;;12.40;99.90;;;;;;5030877;28;20052;-80
2022/09/26 00:06:20;;;;;;;10.45;2.67;;;12.40;99.90;;;;;;5031602;28;20061;-80
2022/09/26 00:08:48;;;;;;;4.85;1.40;;;12.40;99.90;;;;;;5010752;28;20105;-79
2022/09/26 00:11:17;;;;;;;7.90;1.45;;;12.40;99.90;;;;;;5030997;28;20076;-80
2022/09/26 00:13:42;;;;;;;5.07;1.33;;;12.50;99.90;;;;;;5027587;28;20128;-79
2022/09/26 00:16:10;;;;;;;5.47;1.20;;;12.50;99.90;;;;;;5031786;28;20140;-80
2022/09/26 00:18:36;;;;;;;5.57;1.67;;;12.50;99.90;;;;;;5032787;28;20042;-81
2022/09/26 00:21:04;;;;;;;8.02;1.73;;;12.50;99.90;;;;;;5019457;28;20040;-79
2022/09/26 00:23:30;;;;;;;5.53;1.50;;;12.50;99.90;;;;;;5031359;28;20045;-80
2022/09/26 00:25:59;;;;;;;7.18;1.58;;;12.50;99.90;;;;;;4996801;28;20038;-80
2022/09/26 00:28:26;;;;;;;6.35;1.20;;;12.50;99.90;;;;;;5014082;28;20076;-81
2022/09/26 00:30:52;;;;;;;5.70;1.58;;;12.50;99.90;;;;;;5009730;28;20049;-79
2022/09/26 00:33:17;;;;;;;4.60;2.08;;;12.50;99.90;;;;;;5026175;28;20596;-81
2022/09/26 00:35:53;;;;;;;11.40;2.20;;;12.50;99.90;;;;;;5015842;28;20120;-81
2022/09/26 00:38:20;;;;;;;3.92;1.63;;;12.50;99.90;;;;;;5029369;28;20049;-81
2022/09/26 00:40:47;;;;;;;7.88;1.48;;;12.50;99.90;;;;;;5039163;28;20048;-80
2022/09/26 00:43:34;;;;;;;3.25;1.40;;;12.50;99.90;;;;;;5005836;28;20045;-81
2022/09/26 00:46:18;;;;;;;8.77;2.30;;;12.50;99.90;;;;;;5016955;28;20646;-80
2022/09/26 00:48:47;;;;;;;4.05;1.27;;;12.40;99.90;;;;;;5030899;28;20040;-79
2022/09/26 00:51:13;;;;;;;7.32;1.63;;;12.40;99.90;;;;;;5016730;28;20033;-80
2022/09/26 00:53:47;;;;;;;5.72;1.50;;;12.40;99.90;;;;;;5017717;28;20045;-80
2022/09/26 00:56:21;;;;;;;7.32;1.83;;;12.40;99.90;;;;;;5034333;28;20049;-79
2022/09/26 00:59:04;;;;;;;5.03;1.40;;;12.40;99.90;;;;;;5028900;28;20045;-79
2022/09/26 01:01:30;;;;;;;5.82;1.52;;;12.40;99.90;;;;;;5034330;28;20497;-81
2022/09/26 01:03:57;;;;;;;7.20;2.08;;;12.40;99.90;;;;;;5026574;28;20033;-79
2022/09/26 01:06:23;;;;;;;6.07;1.45;;;12.50;99.90;;;;;;4994236;28;20044;-80
2022/09/26 01:08:56;;;;;;;3.80;1.60;;;12.50;99.90;;;;;;4997188;28;20116;-79
2022/09/26 01:11:22;;;;;;;4.50;1.80;;;12.40;99.90;;;;;;5030057;28;20033;-79
2022/09/26 01:13:50;;;;;;;6.60;1.60;;;12.40;99.90;;;;;;5012316;28;20492;-80
2022/09/26 01:16:16;;;;;;;9.68;2.13;;;12.40;99.90;;;;;;5027986;28;20111;-80
2022/09/26 01:18:42;;;;;;;6.18;1.80;;;12.40;99.90;;;;;;5025548;28;20571;-81
2022/09/26 01:21:37;;;;;;;6.93;2.10;;;12.40;99.90;;;;;;5017722;28;20419;-81
2022/09/26 01:24:46;;;;;;;6.13;1.75;;;12.40;99.90;;;;;;4992664;28;20045;-82
2022/09/26 01:27:24;;;;;;;3.22;1.35;;;12.40;99.90;;;;;;4989383;28;20060;-80
2022/09/26 01:30:14;;;;;;;3.85;1.60;;;12.40;99.90;;;;;;5016088;28;20093;-81
2022/09/26 01:32:56;;;;;;;10.57;2.30;;;12.40;99.90;;;;;;5031618;28;20516;-81
2022/09/26 01:35:36;;;;;;;9.73;2.40;;;12.40;99.90;;;;;;5027481;28;20127;-80
2022/09/26 01:38:31;;;;;;;7.43;2.10;;;12.40;99.90;;;;;;5017737;28;20113;-79
2022/09/26 01:41:15;;;;;;;;;;;12.40;99.90;;;;;;5009679;28;20041;-81
2022/09/26 01:43:59;;;;;;;4.30;2.15;;;12.40;99.90;;;;;;5033009;28;20000;-81
2022/09/26 01:46:45;;;;;;;4.78;2.00;;;12.30;99.90;;;;;;5025653;28;20132;-80
2022/09/26 01:49:24;;;;;;;5.90;2.13;;;12.30;99.90;;;;;;5031730;28;20132;-81
2022/09/26 01:52:08;;;;;;;8.98;2.38;;;12.30;99.90;;;;;;5011139;28;20093;-81
2022/09/26 01:54:39;;;;;;;5.07;2.25;;;12.30;99.90;;;;;;5034062;28;20049;-80
2022/09/26 01:57:13;;;;;;;4.88;2.28;;;12.30;99.90;;;;;;5015522;28;20037;-80
2022/09/26 01:59:45;;;;;;;4.25;1.90;;;12.30;99.90;;;;;;5014432;28;20052;-81
2022/09/26 02:02:20;;;;;;;10.20;2.50;;;12.30;99.90;;;;;;5010130;28;20072;-81
2022/09/26 02:04:51;;;;;;;5.75;2.30;;;12.30;99.90;;;;;;5014661;28;20083;-80
2022/09/26 02:07:28;;;;;;;6.22;2.30;;;12.30;99.90;;;;;;5008866;28;20037;-80
2022/09/26 02:09:58;;;;;;;6.07;2.10;;;12.30;99.90;;;;;;5027892;28;20045;-81
2022/09/26 02:12:35;;;;;;;8.80;2.38;;;12.30;99.90;;;;;;5025763;28;20398;-80
2022/09/26 02:15:06;;;;;;;6.93;2.10;;;12.30;99.90;;;;;;5032551;28;20041;-81
2022/09/26 02:17:40;;;;;;;7.32;2.45;;;12.20;99.90;;;;;;5027146;28;20468;-80
2022/09/26 02:20:14;;;;;;;4.30;2.40;;;12.20;99.90;;;;;;5008349;28;20053;-79
2022/09/26 02:22:40;;;;;;;6.78;2.50;;;12.20;99.90;;;;;;5028519;28;20037;-80
2022/09/26 02:25:07;;;;;;;6.63;2.63;;;12.20;99.90;;;;;;4994329;28;20873;-81
2022/09/26 02:27:33;;;;;;;7.95;3.00;;;12.20;99.90;;;;;;5025316;28;20037;-80
2022/09/26 02:29:59;;;;;;;10.32;3.35;;;12.20;99.90;;;;;;5025015;28;20042;-81
2022/09/26 02:32:32;;;;;;;6.68;2.88;;;12.20;99.90;;;;;;5003179;28;20034;-81
2022/09/26 02:34:58;;;;;;;10.05;2.85;;;12.20;99.90;;;;;;5026698;28;20044;-79
2022/09/26 02:37:27;;;;;;;6.53;2.58;;;12.10;99.90;;;;;;5027597;28;20100;-81
2022/09/26 02:39:54;;;;;;;8.75;3.10;;;12.10;99.90;;;;;;5031470;28;20048;-80
2022/09/26 02:42:32;;;;;;;6.40;2.72;;;12.10;99.90;;;;;;5014315;28;20057;-81
2022/09/26 02:45:04;;;;;;;9.07;3.05;;;12.00;99.90;;;;;;5007140;28;20029;-81
2022/09/26 02:48:04;;;;;;;7.07;3.20;;;12.10;99.90;;;;;;5028364;28;20033;-80
2022/09/26 02:50:30;;;;;;;7.63;3.00;;;12.10;99.90;;;;;;5013784;28;20426;-80
2022/09/26 02:53:19;;;;;;;6.20;3.00;;;12.00;99.90;;;;;;5029023;28;20128;-81
2022/09/26 02:56:02;;;;;;;8.60;2.90;;;12.00;99.90;;;;;;5025307;28;20045;-81
2022/09/26 02:58:46;;;;;;;6.47;3.40;;;12.00;99.90;;;;;;5030833;28;20183;-81
2022/09/26 03:01:12;;;;;;;6.15;3.05;;;12.00;99.90;;;;;;5006166;28;20043;-81
2022/09/26 03:04:18;;;;;;;6.88;3.17;;;12.00;99.90;;;;;;5007287;28;20433;-81
2022/09/26 03:06:48;;;;;;;8.43;3.42;;;12.00;99.90;;;;;;5009844;28;20168;-81
2022/09/26 03:09:16;;;;;;;8.00;3.50;;;12.00;99.90;;;;;;5025887;28;20625;-81
2022/09/26 03:11:43;;;;;;;10.73;3.42;;;12.00;99.90;;;;;;5030265;28;20030;-81
2022/09/26 03:14:11;;;;;;;8.57;3.58;;;12.00;99.90;;;;;;5009462;28;20110;-80
2022/09/26 03:16:41;;;;;;;6.60;3.58;;;12.00;99.90;;;;;;5012242;28;20049;-81
2022/09/26 03:19:14;;;;;;;7.78;3.78;;;12.30;99.90;;;;;;5009141;28;20045;-79
2022/09/26 03:21:40;;;;;;;16.92;4.70;;;12.00;99.90;;;;;;5038074;28;20055;-79
2022/09/26 03:24:06;;;;;;;7.22;3.38;;;12.00;99.90;;;;;;5044102;28;20065;-81
2022/09/26 03:26:33;;;;;;;7.20;3.20;;;12.00;99.90;;;;;;5042023;28;20037;-81
2022/09/26 03:28:59;;;;;;;9.02;3.40;;;12.00;99.90;;;;;;5040418;28;20045;-81
2022/09/26 03:31:25;;;;;;;9.27;3.50;;;12.00;99.90;;;;;;5024309;28;20037;-79
2022/09/26 03:33:51;;;;;;;8.88;4.00;;;12.00;99.90;;;;;;5019872;28;20061;-79
2022/09/26 03:36:19;;;;;;;11.93;4.57;;;12.00;99.90;;;;;;5024397;28;20448;-81
2022/09/26 03:38:45;;;;;;;7.10;3.72;;;12.20;99.90;;;;;;5021046;28;20053;-80
2022/09/26 03:41:11;;;;;;;11.15;4.15;;;12.00;99.90;;;;;;5020272;28;20033;-79
2022/09/26 03:43:36;;;;;;;8.55;3.75;;;12.00;99.90;;;;;;5038520;28;20452;-79
2022/09/26 03:46:06;;;;;;;7.78;4.40;;;12.40;99.90;;;;;;5024224;28;20098;-80
2022/09/26 03:48:32;;;;;;;10.00;3.72;;;12.00;99.90;;;;;;5039867;28;20056;-79
2022/09/26 03:51:10;;;;;;;8.13;4.05;;;12.00;99.90;;;;;;5037424;28;20049;-80
2022/09/26 03:53:38;;;;;;;7.72;4.55;;;12.00;99.90;;;;;;5037223;28;20060;-80
2022/09/26 03:56:06;;;;;;;6.07;3.60;;;12.00;99.90;;;;;;5024449;28;20052;-80
2022/09/26 03:58:32;;;;;;;7.72;4.18;;;12.00;99.90;;;;;;5025020;28;20053;-81
2022/09/26 04:01:09;;;;;;;8.30;4.32;;;12.00;99.90;;;;;;5038991;28;20152;-80
2022/09/26 04:03:37;;;;;;;9.82;4.25;;;11.90;99.90;;;;;;5052748;28;20045;-81
2022/09/26 04:06:04;;;;;;;5.50;3.38;;;11.90;99.90;;;;;;5037306;28;20254;-80
2022/09/26 04:08:30;;;;;;;7.20;3.90;;;11.90;99.90;;;;;;5023648;28;20041;-81
2022/09/26 04:11:08;;;;;;;8.95;3.67;;;11.90;99.90;;;;;;5019911;28;20048;-80
2022/09/26 04:13:34;;;;;;;6.43;3.35;;;11.90;99.90;;;;;;5040175;28;20048;-80
2022/09/26 04:16:00;;;;;;;5.55;3.25;;;11.90;99.90;;;;;;5020204;28;20490;-81
2022/09/26 04:18:27;;;;;;;6.03;4.00;;;11.90;99.90;;;;;;5037980;28;20041;-80
2022/09/26 04:21:00;;;;;;;8.27;3.60;;;11.90;99.90;;;;;;5039040;28;20165;-80
2022/09/26 04:23:27;;;;;;;6.10;3.80;;;11.90;99.90;;;;;;5047155;28;20048;-80
2022/09/26 04:25:54;;;;;;;11.05;3.25;;;11.90;99.90;;;;;;5021540;28;20033;-79
2022/09/26 04:28:20;;;;;;;6.55;3.47;;;12.00;99.90;;;;;;5016001;28;20029;-79
2022/09/26 04:30:46;;;;;;;7.07;3.72;;;11.80;99.90;;;;;;5022365;28;20041;-82
2022/09/26 04:33:12;;;;;;;7.75;3.50;;;11.90;99.90;;;;;;5009643;28;20068;-79
2022/09/26 04:35:38;;;;;;;5.30;3.42;;;11.80;99.90;;;;;;5036914;28;20409;-81
2022/09/26 04:38:03;;;;;;;10.57;3.80;;;11.80;99.90;;;;;;5001991;28;20076;-81
2022/09/26 04:40:30;;;;;;;6.03;4.00;;;11.80;99.90;;;;;;5022966;28;20581;-81
2022/09/26 04:42:57;;;;;;;6.95;4.35;;;11.80;99.90;;;;;;5038506;28;20048;-81
2022/09/26 04:45:23;;;;;;;9.25;4.03;;;11.80;99.90;;;;;;5033521;28;20052;-80
2022/09/26 04:47:49;;;;;;;7.10;4.10;;;11.80;99.90;;;;;;5029632;28;20041;-81
2022/09/26 04:50:15;;;;;;;6.95;4.05;;;11.80;99.90;;;;;;5036022;28;20044;-80
2022/09/26 04:52:41;;;;;;;9.80;4.70;;;11.80;99.90;;;;;;4998777;28;20034;-81
2022/09/26 04:55:07;;;;;;;8.48;3.60;;;11.80;99.90;;;;;;4987377;28;20049;-79
2022/09/26 04:57:33;;;;;;;8.93;4.05;;;11.80;99.90;;;;;;5006198;28;20045;-81
2022/09/26 04:59:59;;;;;;;9.68;4.47;;;11.80;99.90;;;;;;5015344;28;20045;-81
2022/09/26 05:02:24;;;;;;;6.13;3.85;;;11.80;99.90;;;;;;4997312;28;20468;-80
2022/09/26 05:04:50;;;;;;;7.30;4.30;;;11.80;99.90;;;;;;5021914;28;20105;-81
2022/09/26 05:07:17;;;;;;;8.30;3.70;;;11.80;99.90;;;;;;5024730;28;20041;-81
2022/09/26 05:09:43;;;;;;;8.93;4.65;;;11.80;99.90;;;;;;5027154;28;20509;-80
2022/09/26 05:12:09;;;;;;;6.97;4.25;;;11.80;99.90;;;;;;5026950;28;20037;-79
2022/09/26 05:14:35;;;;;;;9.00;3.88;;;11.80;99.90;;;;;;5021337;28;20048;-81
2022/09/26 05:17:01;;;;;;;8.35;4.15;;;11.80;99.90;;;;;;5008497;28;20068;-80
2022/09/26 05:19:27;;;;;;;9.15;4.72;;;11.70;99.90;;;;;;5029085;28;20045;-79
2022/09/26 05:21:53;;;;;;;7.53;4.63;;;11.70;99.90;;;;;;5027028;28;20124;-81
2022/09/26 05:27:04;;;;;;;;;;;11.70;99.90;;;;;;5036266;28;22020;-82
2022/09/26 05:29:30;;;;;;;8.48;5.22;;;11.70;99.90;;;;;;5029024;28;19923;-83
2022/09/26 05:31:55;;;;;;;8.20;4.78;;;11.70;99.90;;;;;;5024227;28;20128;-81
2022/09/26 05:34:23;;;;;;;9.00;5.18;;;11.70;99.90;;;;;;5023838;28;20057;-81
2022/09/26 05:36:50;;;;;;;8.48;4.68;;;11.70;99.90;;;;;;5027479;28;20748;-82
2022/09/26 05:42:01;;;;;;;8.85;4.72;;;11.80;99.90;;;;;;5032706;28;20398;-81
2022/09/26 05:44:27;;;;;;;9.50;5.55;;;11.70;99.90;;;;;;5024189;28;20037;-82
2022/09/26 05:46:52;;;;;;;7.43;4.57;;;11.70;99.90;;;;;;5025196;28;20117;-80
2022/09/26 05:49:18;;;;;;;8.30;5.00;;;11.70;99.90;;;;;;5025109;28;20073;-81
2022/09/26 05:51:45;;;;;;;9.27;4.75;;;11.70;99.90;;;;;;5008361;28;20106;-82
2022/09/26 05:54:10;;;;;;;7.95;5.22;;;11.70;99.90;;;;;;5007385;28;20080;-82
2022/09/26 05:56:36;;;;;;;9.00;4.82;;;11.60;99.90;;;;;;5044491;28;20064;-81
2022/09/26 05:59:03;;;;;;;7.78;4.80;;;11.70;99.90;;;;;;5025644;28;20037;-80
2022/09/26 06:01:29;;;;;;;8.15;4.68;;;11.70;99.90;;;;;;5023591;28;20041;-81
2022/09/26 06:03:54;;;;;;;12.95;5.57;;;11.60;99.90;;;;;;5006457;28;20042;-81
2022/09/26 06:06:20;;;;;;;8.55;4.68;;;11.60;99.90;;;;;;5009011;28;20497;-81
2022/09/26 06:08:47;;;;;;;7.50;4.20;;;11.70;99.90;;;;;;5032234;28;20037;-82
2022/09/26 06:11:23;;;;;;;11.15;4.38;;;11.70;99.90;;;;;;5003356;28;20025;-82
2022/09/26 06:13:49;;;;;;;7.50;4.68;;;11.60;99.90;;;;;;5013864;28;20613;-81
2022/09/26 06:16:17;;;;;;;7.85;4.10;;;11.60;99.90;;;;;;4998527;28;20131;-82
2022/09/26 06:18:44;;;;;;;7.65;3.90;;;11.70;99.90;;;;;;5036407;28;20477;-80
2022/09/26 06:21:11;;;;;;;6.00;3.53;;;11.60;99.90;;;;;;5034015;28;20112;-81
2022/09/26 06:23:38;;;;;;;7.65;4.20;;;11.80;99.90;;;;;;5032141;28;20037;-82
2022/09/26 06:26:07;;;;;;;12.95;4.43;;;11.60;99.90;;;;;;5015036;28;20037;-80
2022/09/26 06:28:34;;;;;;;7.70;3.88;;;11.60;99.90;;;;;;5018888;28;20397;-80
2022/09/26 06:31:07;;;;;;;9.77;4.07;;;11.60;99.90;;;;;;5029519;28;20044;-81
2022/09/26 06:33:33;;;;;;;5.83;3.50;;;11.60;99.90;;;;;;5029052;28;20091;-82
2022/09/26 06:36:09;;;;;;;8.60;4.05;;;11.60;99.90;;;;;;4980999;28;20695;-81
2022/09/26 06:38:37;;;;;;;8.45;3.90;;;11.60;99.90;;;;;;5033505;28;20038;-81
2022/09/26 06:41:03;;;;;;;6.93;4.15;;;11.60;99.90;;;;;;5015023;28;20040;-81
2022/09/26 06:43:30;;;;;;;8.73;3.90;;;11.60;99.90;;;;;;5034777;28;20042;-81
2022/09/26 06:45:56;;;;;;;13.48;4.50;;;11.60;99.90;;;;;;5031451;28;20116;-81
2022/09/26 06:48:22;;;;;;;10.70;3.88;;;11.60;99.90;;;;;;4999869;28;20095;-81
2022/09/26 06:50:52;;;;;;;11.32;4.03;;;11.60;99.90;;;;;;5013066;28;20034;-83
2022/09/26 06:53:18;;;;;;;6.47;3.75;;;11.60;99.90;;;;;;5015043;28;20413;-82
2022/09/26 06:55:44;;;;;;;6.85;4.05;;;12.10;99.90;;;;;;5014700;28;20047;-83
2022/09/26 06:58:10;;;;;;;6.03;3.70;;;11.60;99.90;;;;;;5011615;28;20044;-81
2022/09/26 07:00:35;;;;;;;7.95;3.80;;;11.60;99.90;;;;;;5035355;28;20041;-83
2022/09/26 07:03:01;;;;;;;7.13;3.80;;;11.60;99.90;;;;;;4994389;28;20040;-82
2022/09/26 07:05:27;;;;;;;10.73;3.95;;;11.60;99.90;;;;;;5026238;28;20037;-81
2022/09/26 07:07:54;;;;;;;6.40;3.60;;;12.40;99.90;;;;;;5013697;28;20084;-82
2022/09/26 07:10:20;;;;;;;8.85;5.30;;;11.60;99.90;;;;;;5019106;28;20037;-83
2022/09/26 07:12:48;;;;;;;6.72;3.72;;;11.60;99.90;;;;;;5011580;28;20072;-82
2022/09/26 07:15:18;;;;;;;9.73;4.03;;;11.60;99.90;;;;;;5030655;28;20456;-83
2022/09/26 07:17:46;;;;;;;6.43;3.75;;;11.70;99.90;;;;;;5029014;28;20465;-82
2022/09/26 07:20:18;;;;;;;7.40;3.60;;;11.70;99.90;;;;;;5031653;28;20571;-83
2022/09/26 07:22:44;;;;;;;8.05;4.10;;;11.70;99.90;;;;;;5013086;28;20037;-82
2022/09/26 07:25:10;;;;;;;7.75;3.78;;;11.60;99.90;;;;;;5013336;28;20260;-83
2022/09/26 07:27:37;;;;;;;7.50;3.50;;;11.70;99.90;;;;;;5029711;28;20335;-81
2022/09/26 07:30:05;;;;;;;11.60;4.00;;;11.70;99.90;;;;;;5014462;28;20879;-83
2022/09/26 07:32:31;;;;;;;8.48;3.90;;;11.80;99.90;;;;;;5011913;28;20045;-83
2022/09/26 07:35:02;;;;;;;5.60;3.50;;;11.80;99.90;;;;;;5016862;28;20041;-82
2022/09/26 07:37:29;;;;;;;8.98;3.72;;;11.80;99.90;;;;;;5008787;28;20521;-80
2022/09/26 07:39:55;;;;;;;6.10;3.30;;;11.80;99.90;;;;;;5044844;28;20069;-83
2022/09/26 07:42:20;;;;;;;5.82;3.17;;;11.80;99.90;;;;;;5029476;28;20049;-81
2022/09/26 07:44:47;;;;;;;8.45;3.10;;;11.80;99.90;;;;;;5011118;28;20125;-83
2022/09/26 07:50:13;;;;;;;8.93;3.67;;;11.90;99.90;;;;;;5028336;28;20044;-82
2022/09/26 07:52:41;;;;;;;6.93;3.40;;;11.90;99.90;;;;;;5008129;28;20056;-83
2022/09/26 07:55:08;;;;;;;6.45;2.92;;;11.90;99.90;;;;;;5030654;28;20049;-83
2022/09/26 07:57:34;;;;;;;7.55;3.20;;;12.00;99.90;;;;;;5015019;28;20052;-82
2022/09/26 08:00:11;;;;;;;9.75;3.42;;;12.00;99.90;;;;;;5017514;28;20037;-83
2022/09/26 08:02:41;;;;;;;5.50;3.05;;;12.10;99.90;;;;;;5047813;28;20041;-81
2022/09/26 08:05:08;;;;;;;7.72;2.95;;;12.10;99.90;;;;;;5011855;28;20122;-83
2022/09/26 08:07:35;;;;;;;7.22;3.05;;;12.10;99.90;;;;;;5014177;28;20049;-83
2022/09/26 08:10:02;;;;;;;7.20;3.03;;;12.10;99.90;;;;;;5017797;28;20037;-82
2022/09/26 08:12:36;;;;;;;5.25;2.97;;;12.20;99.90;;;;;;5032897;28;20056;-81
2022/09/26 08:15:05;;;;;;;7.97;3.03;;;12.20;99.90;;;;;;5029599;28;20295;-83
2022/09/26 08:17:31;;;;;;;5.75;2.70;;;12.20;99.90;;;;;;5016050;28;20091;-82
2022/09/26 08:19:58;;;;;;;4.70;2.67;;;12.20;99.90;;;;;;5010986;28;20060;-81
2022/09/26 08:22:24;;;;;;;5.43;2.38;;;12.20;99.90;;;;;;5032423;28;20041;-83
2022/09/26 08:24:49;;;;;;;6.32;2.70;;;12.30;99.90;;;;;;5020025;28;20037;-81
2022/09/26 08:27:16;;;;;;;9.27;2.90;;;12.30;99.90;;;;;;5000094;28;20048;-81
2022/09/26 08:29:47;;;;;;;6.28;3.13;;;12.30;99.90;;;;;;5030236;28;20049;-81
2022/09/26 08:32:13;;;;;;;9.55;2.67;;;12.40;99.90;;;;;;5015314;28;20420;-82
2022/09/26 08:34:39;;;;;;;8.27;2.83;;;12.40;99.90;;;;;;5029516;28;20527;-81
2022/09/26 08:37:05;;;;;;;4.45;2.60;;;12.50;99.90;;;;;;5012752;28;20481;-82
2022/09/26 08:39:31;;;;;;;8.05;2.72;;;12.50;99.90;;;;;;5036345;28;20095;-81
2022/09/26 08:42:28;;;;;;;6.95;2.58;;;12.50;99.90;;;;;;5016512;28;20083;-82
2022/09/26 08:48:25;;;;;;;6.63;3.42;;;12.50;99.90;;;;;;5034664;28;20080;-81
2022/09/26 08:50:58;;;;;;;7.80;2.53;;;12.50;99.90;;;;;;5030882;28;20037;-83
2022/09/26 08:53:41;;;;;;;5.97;2.63;;;12.70;99.90;;;;;;5022966;28;20878;-83
2022/09/26 08:56:18;;;;;;;6.70;2.90;;;12.40;99.90;;;;;;5030692;28;20048;-82
2022/09/26 08:58:50;;;;;;;9.13;2.70;;;12.40;99.90;;;;;;5015919;28;20037;-82
2022/09/26 09:01:25;;;;;;;6.30;3.08;;;12.50;99.90;;;;;;5015280;28;20041;-82
2022/09/26 09:03:53;;;;;;;7.32;3.35;;;12.50;99.90;;;;;;5028301;28;20421;-82
2022/09/26 09:06:19;;;;;;;9.30;3.28;;;12.50;99.90;;;;;;5012125;28;20448;-82
2022/09/26 09:08:55;;;;;;;8.20;3.17;;;12.60;99.90;;;;;;5014704;28;20445;-81
2022/09/26 09:11:29;;;;;;;6.28;3.63;;;12.70;99.90;;;;;;5028671;28;20474;-82
2022/09/26 09:14:01;;;;;;;8.18;3.42;;;12.70;99.90;;;;;;5013787;28;20041;-82
2022/09/26 09:16:44;;;;;;;7.07;3.45;;;12.70;99.90;;;;;;5009770;28;20528;-83
2022/09/26 09:19:28;;;;;;;7.07;3.80;;;12.60;99.90;;;;;;5015472;28;20053;-82
2022/09/26 09:22:32;;;;;;;14.60;4.80;;;12.60;99.90;;;;;;5007629;28;20048;-82
2022/09/26 09:25:02;;;;;;;11.60;4.28;;;12.50;99.90;;;;;;5034031;28;20033;-82
2022/09/26 09:27:54;;;;;;;10.43;4.93;;;12.70;99.90;;;;;;5023688;28;20487;-81
2022/09/26 09:30:24;;;;;;;8.82;4.55;;;12.40;99.90;;;;;;5014472;28;20033;-82
2022/09/26 09:32:56;;;;;;;9.25;4.88;;;12.50;99.90;;;;;;5030282;28;20041;-83
2022/09/26 09:35:37;;;;;;;7.57;4.30;;;12.50;99.90;;;;;;5033733;28;20088;-82
2022/09/26 09:38:06;;;;;;;6.95;4.05;;;12.40;99.90;;;;;;5031154;28;20102;-81
2022/09/26 09:40:58;;;;;;;8.90;4.28;;;12.40;99.90;;;;;;5015263;28;20155;-82
2022/09/26 09:43:37;;;;;;;9.73;5.03;;;12.40;99.90;;;;;;5020082;28;20117;-82
2022/09/26 09:46:11;;;;;;;8.65;4.30;;;12.40;99.90;;;;;;5026274;28;20125;-82
2022/09/26 09:48:37;;;;;;;8.48;4.93;;;12.40;99.90;;;;;;5031619;28;20040;-80
2022/09/26 09:51:46;;;;;;;8.27;5.28;;;12.50;99.90;;;;;;5032930;28;20429;-83
2022/09/26 09:54:23;;;;;;;8.30;5.03;;;12.50;99.90;;;;;;5013382;28;20395;-81
2022/09/26 09:57:16;;;;;;;9.25;4.70;;;12.50;99.90;;;;;;5011664;28;20522;-82
2022/09/26 09:59:58;;;;;;;13.15;5.10;;;12.40;99.90;;;;;;5008487;28;20037;-82
2022/09/26 10:02:45;;;;;;;12.07;5.22;;;12.40;99.90;;;;;;5015190;28;20049;-83
2022/09/26 10:05:40;;;;;;;9.90;4.80;;;12.40;99.90;;;;;;5010847;28;20048;-82
2022/09/26 10:08:15;;;;;;;12.23;4.90;;;12.40;99.90;;;;;;5011053;28;20326;-84
2022/09/26 10:11:11;;;;;;;8.23;4.65;;;12.30;99.90;;;;;;5013622;28;20033;-82
2022/09/26 10:13:40;;;;;;;7.78;4.38;;;12.30;99.90;;;;;;5028928;28;20132;-83
2022/09/26 10:16:09;;;;;;;9.43;4.82;;;12.30;99.90;;;;;;5015872;28;20290;-82
2022/09/26 10:18:53;;;;;;;7.57;4.68;;;12.30;99.90;;;;;;5030963;28;20068;-82
2022/09/26 10:21:24;;;;;;;8.02;4.70;;;12.30;99.90;;;;;;5027002;28;20044;-83
2022/09/26 10:23:50;;;;;;;8.95;5.05;;;12.30;99.90;;;;;;5011584;28;20041;-83
2022/09/26 10:26:23;;;;;;;10.20;5.03;;;12.30;99.90;;;;;;4996788;28;20037;-83
2022/09/26 10:28:53;;;;;;;9.52;5.25;;;12.20;99.90;;;;;;5022753;28;20099;-82
2022/09/26 10:31:28;;;;;;;8.77;5.32;;;12.20;99.90;;;;;;5023273;28;20064;-83
2022/09/26 10:34:05;;;;;;;11.48;5.20;;;12.20;99.90;;;;;;5023207;28;20101;-82
2022/09/26 10:36:35;;;;;;;8.00;5.47;;;12.20;99.90;;;;;;5031905;28;20662;-81
2022/09/26 10:42:14;;;;;;;10.20;5.88;;;12.20;99.90;;;;;;5033635;28;20041;-81
2022/09/26 10:44:41;;;;;;;8.70;6.00;;;12.20;99.90;;;;;;5013883;28;20046;-81
2022/09/26 10:47:18;;;;;;;6.75;5.22;;;12.20;99.90;;;;;;5019498;28;20076;-82
2022/09/26 10:49:54;;;;;;;10.80;5.45;;;12.20;99.90;;;;;;5013350;28;20041;-81
2022/09/26 10:52:33;;;;;;;9.43;5.80;;;12.20;99.90;;;;;;5034439;28;20068;-82
2022/09/26 10:55:05;;;;;;;8.80;6.45;;;12.20;99.90;;;;;;5008215;28;20079;-81
2022/09/26 10:57:38;;;;;;;8.50;5.90;;;12.30;99.90;;;;;;5010430;28;20044;-82
2022/09/26 11:00:05;;;;;;;8.73;6.80;;;12.30;99.90;;;;;;5011847;28;20037;-81
2022/09/26 11:02:31;;;;;;;9.20;6.30;;;12.30;99.90;;;;;;5028980;28;20041;-81
2022/09/26 11:07:48;;;;;;;10.68;6.82;;;12.30;99.90;;;;;;5013451;28;20052;-79
2022/09/26 11:10:17;;;;;;;9.55;6.88;;;12.40;99.90;;;;;;5028175;28;20599;-80
2022/09/26 11:13:23;;;;;;;8.00;6.25;;;12.40;99.90;;;;;;5031902;28;20046;-80
2022/09/26 11:16:11;;;;;;;7.72;6.10;;;12.40;99.90;;;;;;5026659;28;20057;-80
2022/09/26 11:18:41;;;;;;;10.15;6.43;;;12.50;99.90;;;;;;5014387;28;20052;-80
2022/09/26 11:21:45;;;;;;;9.20;6.40;;;12.50;99.90;;;;;;5011487;28;20099;-80
2022/09/26 11:24:29;;;;;;;8.80;6.80;;;12.50;99.90;;;;;;5029803;28;20042;-79
2022/09/26 11:27:13;;;;;;;8.85;5.97;;;12.50;99.90;;;;;;5008396;28;20584;-80
2022/09/26 11:29:38;;;;;;;;;;;12.50;99.90;;;;;;5012992;28;20068;-80
2022/09/26 11:32:04;;;;;;;9.25;6.05;;;12.50;99.90;;;;;;5030222;28;19925;-80
2022/09/26 11:34:32;;;;;;;7.32;5.78;;;12.40;99.90;;;;;;5017469;28;20037;-82
2022/09/26 11:37:35;;;;;;;8.13;5.72;;;12.50;99.90;;;;;;5012753;28;20069;-80
2022/09/26 11:40:20;;;;;;;9.13;6.15;;;12.50;99.90;;;;;;5013972;28;20033;-80
2022/09/26 11:42:58;;;;;;;9.00;5.93;;;12.50;99.90;;;;;;5028490;28;20052;-82
2022/09/26 11:46:13;;;;;;;6.07;5.05;;;12.60;99.90;;;;;;5009775;28;20041;-81
2022/09/26 11:49:04;;;;;;;6.53;5.50;;;12.60;99.90;;;;;;4984512;28;20135;-81
2022/09/26 11:51:50;;;;;;;8.00;6.65;;;12.60;99.90;;;;;;5009087;28;20076;-82
2022/09/26 11:54:57;;;;;;;7.57;5.78;;;12.60;99.90;;;;;;5026681;28;20037;-83
2022/09/26 11:57:50;;;;;;;9.68;6.25;;;12.60;99.90;;;;;;5023604;28;20057;-82
2022/09/26 12:00:26;;;;;;;8.00;5.95;;;12.70;99.90;;;;;;5011115;28;20077;-85
2022/09/26 12:03:15;;;;;;;7.30;6.25;;;12.80;99.90;;;;;;5017339;28;20036;-82
2022/09/26 12:05:49;;;;;;;7.53;5.97;;;12.80;99.90;;;;;;5031590;28;20048;-84
2022/09/26 12:08:24;;;;;;;8.32;6.07;;;12.90;99.90;;;;;;5031516;28;20037;-80
2022/09/26 12:11:09;;;;;;;10.32;6.72;;;12.90;99.90;;;;;;5028211;28;20428;-83
2022/09/26 12:13:59;;;;;;;7.32;6.40;;;12.90;99.90;;;;;;5024877;28;20072;-82
2022/09/26 12:16:24;;;;;;;8.40;5.75;;;12.90;99.90;;;;;;5007976;28;20044;-83
2022/09/26 12:19:16;;;;;;;9.80;6.30;;;12.90;99.90;;;;;;5010500;28;20407;-82
2022/09/26 12:24:50;;;;;;;7.65;5.85;;;13.00;99.90;;;;;;5023453;28;20049;-79
2022/09/26 12:27:56;;;;;;;9.45;5.82;;;13.10;99.90;;;;;;5024628;28;20033;-81
2022/09/26 12:30:32;;;;;;;8.65;5.85;;;13.10;99.90;;;;;;5008043;28;20037;-80
2022/09/26 12:33:06;;;;;;;6.15;5.57;;;13.10;99.90;;;;;;5022790;28;20402;-80
2022/09/26 12:35:43;;;;;;;;;;;13.10;99.90;;;;;;5010731;28;20076;-81
2022/09/26 12:38:45;;;;;;;5.95;5.28;;;13.10;99.90;;;;;;5029646;28;19917;-81
2022/09/26 12:41:28;;;;;;;8.82;5.88;;;13.00;99.90;;;;;;5010712;28;20041;-84
2022/09/26 12:44:03;;;;;;;7.07;5.43;;;13.10;99.90;;;;;;5033693;28;20120;-81
2022/09/26 12:46:47;;;;;;;6.78;5.55;;;13.00;99.90;;;;;;5028992;28;20040;-82
2022/09/26 12:49:38;;;;;;;7.50;5.75;;;13.00;99.90;;;;;;5034170;28;20041;-79
2022/09/26 12:52:13;;;;;;;6.85;5.45;;;13.10;99.90;;;;;;5016256;28;20037;-80
2022/09/26 12:55:15;;;;;;;6.65;5.93;;;13.10;99.90;;;;;;5031725;28;20115;-79
2022/09/26 12:57:54;;;;;;;8.15;5.97;;;13.10;99.90;;;;;;5021570;28;20041;-79
2022/09/26 13:00:21;;;;;;;7.93;5.82;;;13.10;99.90;;;;;;5009938;28;20121;-78
2022/09/26 13:03:23;;;;;;;8.32;6.18;;;13.10;99.90;;;;;;5032250;28;20044;-79
2022/09/26 13:06:04;;;;;;;7.90;5.60;;;13.10;99.90;;;;;;5029338;28;20096;-79
2022/09/26 13:09:14;;;;;;;8.00;5.45;;;13.10;99.90;;;;;;5048532;28;20041;-80
2022/09/26 13:12:15;;;;;;;8.77;6.43;;;13.10;99.90;;;;;;5021719;28;20029;-80
2022/09/26 13:15:11;;;;;;;7.68;5.60;;;13.30;99.90;;;;;;5033844;28;20033;-80
2022/09/26 13:17:41;;;;;;;7.53;5.60;;;13.40;99.90;;;;;;5047389;28;20038;-79
2022/09/26 13:20:20;;;;;;;7.35;5.30;;;13.60;99.90;;;;;;5027334;28;20041;-80
2022/09/26 13:22:52;;;;;;;10.48;5.15;;;13.70;99.90;;;;;;5006554;28;21359;-80
2022/09/26 13:25:28;;;;;;;8.38;4.57;;;13.90;99.90;;;;;;5006503;28;20127;-80
2022/09/26 13:28:08;;;;;;;4.50;2.97;;;14.00;99.90;;;;;;5025920;28;20042;-80
2022/09/26 13:30:52;;;;;;;8.23;3.22;;;14.20;99.90;;;;;;5018794;28;20048;-81
2022/09/26 13:33:55;;;;;;;8.75;3.08;;;14.30;99.90;;;;;;5026885;28;20044;-80
2022/09/26 13:36:22;;;;;;;9.02;3.55;;;14.40;99.90;;;;;;5029755;28;20037;-81
2022/09/26 13:39:07;;;;;;;9.40;2.13;;;14.60;99.90;;;;;;5017164;28;20030;-80